メインページ
METAR-TAF:

METAR-TAF

空港 :

ベルビル, イリノイ州, アメリカ合衆国

緯度: 38-33N, 経度: 089-51W, 海抜: 140m

現時点の気象観測

当レポートは1時間12分前の23:56(UTC)に作成
北東の風 4kt
気温 22°C
湿度 69%
気圧 1018 hPa
視程: 16.1km
晴天

METAR: KBLV 242356Z AUTO 05004KT 10SM CLR 22/16 A3007 RMK AO2 SLP184 60000 T02240155 10252 20224 56006 $

時間: 20:08 (01:08 UTC)

予報

当レポートは1時間8分前の00:00(UTC)に作成
予報は25日の 00時(UTC)から 26日の 06時(UTC)まで有効
変向風 6kt
視程10km以上
高度3000ftの雲はほとんどない
25日の 18時(UTC)から 25日の 19時(UTC)まで徐々に
の風 6kt
視程: 8000m
高度3000ftの千切れ雲あり
26日の 05時(UTC)から 26日の 06時(UTC)まで徐々に
変向風 6kt
視程: 8000m
高度600ftの千切れ雲あり
小雨

TAF: KBLV 250000Z 2500/2606 VRB06KT 9999 FEW030 QNH2995INS BECMG 2518/2519 08006KT 8000 BR BKN030 QNH2989INS BECMG 2605/2606 VRB06KT 8000 -RA BKN006 QNH2987INS TX27/2517Z TN17/2508Z

4,000以上の空港の気象観測と天気予報(METAR報とTAF報)

利用可能な観測所は地図上に黄色い丸と赤い丸で示す。

丸の上にカーソルを重ねると観測所名を参照できる。

次にクリックすると気象観測と天気予報を参照できる。

マップの切り替え:黒色「×」印の緑ボタンをクリックして拡大、「-」印の緑ボタンをクリックして縮小、緑色の三角印をクリックして隣りの地図に切り替え


METAR-TAF: